createdAt,value
2018-01-18T00:00:09.965Z,93.94
2018-01-18T00:00:50.530Z,94.42
2018-01-18T00:01:31.124Z,93.75
2018-01-18T00:02:11.675Z,93.84
2018-01-18T00:02:52.232Z,93.37
2018-01-18T00:03:32.830Z,93.56
2018-01-18T00:05:32.000Z,92.9
2018-01-18T00:06:12.538Z,92.8
2018-01-18T00:06:55.772Z,92.61
2018-01-18T00:07:36.314Z,93.27
2018-01-18T00:08:16.866Z,92.71
2018-01-18T00:08:57.423Z,93.46
2018-01-18T00:09:40.694Z,93.08
2018-01-18T00:10:21.344Z,93.56
2018-01-18T00:11:01.963Z,92.8
2018-01-18T00:11:42.411Z,92.71
2018-01-18T00:12:23.538Z,93.27
2018-01-18T00:13:05.183Z,92.51
2018-01-18T00:13:45.882Z,92.99
2018-01-18T00:14:26.348Z,93.56
2018-01-18T00:15:06.952Z,93.46
2018-01-18T00:15:47.445Z,93.37
2018-01-18T00:18:04.392Z,94.03
2018-01-18T00:18:46.728Z,93.65
2018-01-18T00:19:27.478Z,93.46
2018-01-18T00:22:40.605Z,93.27
2018-01-18T00:23:22.050Z,93.75
2018-01-18T00:24:02.612Z,93.46
2018-01-18T00:24:45.738Z,93.27
2018-01-18T00:25:26.889Z,93.37
2018-01-18T00:26:07.498Z,93.56
2018-01-18T00:26:49.678Z,93.94
2018-01-18T00:27:30.288Z,93.75
2018-01-18T00:28:10.781Z,93.56
2018-01-18T00:28:51.377Z,93.08
2018-01-18T00:29:31.936Z,93.56
2018-01-18T00:30:12.679Z,93.84
2018-01-18T00:30:53.401Z,93.37
2018-01-18T00:31:34.026Z,93.46
2018-01-18T00:32:14.929Z,93.18
2018-01-18T00:32:55.505Z,92.23
2018-01-18T00:33:36.297Z,92.04
2018-01-18T00:34:17.240Z,92.32
2018-01-18T00:34:57.887Z,92.8
2018-01-18T00:35:38.574Z,92.8
2018-01-18T00:36:19.713Z,92.42
2018-01-18T00:37:00.292Z,91.89
2018-01-18T00:37:40.956Z,91.56
2018-01-18T00:38:21.647Z,90.99
2018-01-18T00:39:02.268Z,90.8
2018-01-18T00:39:43.017Z,90.52
2018-01-18T00:40:23.462Z,90.99
2018-01-18T00:41:04.020Z,91.13
2018-01-18T00:41:44.640Z,90.47
2018-01-18T00:42:25.274Z,90.56
2018-01-18T00:43:05.936Z,89.9
2018-01-18T00:43:46.570Z,89.8
2018-01-18T00:44:27.300Z,89.33
2018-01-18T00:45:07.803Z,89.04
2018-01-18T00:45:48.403Z,88.85
2018-01-18T00:46:28.906Z,88.76
2018-01-18T00:47:09.594Z,88.19
2018-01-18T00:47:50.159Z,88.28
2018-01-18T00:48:30.781Z,88.67
2018-01-18T00:49:11.255Z,88.67
2018-01-18T00:49:51.835Z,89.52
2018-01-18T00:50:32.367Z,89.42
2018-01-18T00:51:12.912Z,89.14
2018-01-18T00:51:53.786Z,88.47
2018-01-18T00:52:34.309Z,88.67
2018-01-18T00:53:15.159Z,88.85
2018-01-18T00:53:55.634Z,88.19
2018-01-18T00:54:36.216Z,88.28
2018-01-18T00:55:16.817Z,88.67
2018-01-18T00:55:57.644Z,88.76
2018-01-18T00:56:38.271Z,88.85
2018-01-18T00:57:18.610Z,88.85
2018-01-18T00:58:01.041Z,88.67
2018-01-18T00:58:40.489Z,88.76
2018-01-18T00:59:21.468Z,88.28
2018-01-18T01:00:02.078Z,88.28
2018-01-18T01:00:43.715Z,88
2018-01-18T01:01:25.477Z,87.9
2018-01-18T01:02:06.153Z,88.09
2018-01-18T01:02:46.770Z,88.09
2018-01-18T01:03:27.281Z,88.85
2018-01-18T01:04:09.120Z,88.15
2018-01-18T01:04:53.543Z,88.9
2018-01-18T01:05:34.772Z,88.9
2018-01-18T01:06:15.393Z,88.9
2018-01-18T01:06:56.059Z,88.81
2018-01-18T01:07:37.955Z,88.57
2018-01-18T01:08:19.462Z,88.57
2018-01-18T01:09:01.317Z,88.76
2018-01-18T01:09:43.092Z,88.62
2018-01-18T01:10:24.172Z,88.43
2018-01-18T01:11:05.753Z,88.53
2018-01-18T01:11:47.694Z,89.19
2018-01-18T01:12:29.428Z,89
2018-01-18T01:13:11.421Z,88.81
2018-01-18T01:13:53.317Z,88.53
2018-01-18T01:14:35.704Z,88.24
2018-01-18T01:15:15.829Z,88.71
2018-01-18T01:15:56.393Z,88.19
2018-01-18T01:16:38.333Z,88.53
2018-01-18T01:17:19.885Z,88.62
2018-01-18T01:18:00.505Z,88.67
2018-01-18T01:18:41.405Z,88.67
2018-01-18T01:19:23.105Z,88.95
2018-01-18T01:20:04.972Z,88.67
2018-01-18T01:20:45.603Z,88.85
2018-01-18T01:21:27.071Z,88.95
2018-01-18T01:22:08.167Z,88.71
2018-01-18T01:22:49.133Z,89.28
2018-01-18T01:23:31.104Z,89.28
2018-01-18T01:24:13.672Z,89.38
2018-01-18T01:24:55.946Z,89.95
2018-01-18T01:25:36.629Z,89.57
2018-01-18T01:26:18.258Z,89.67
2018-01-18T01:26:59.467Z,89.57
2018-01-18T01:27:40.311Z,89.38
2018-01-18T01:28:20.953Z,89.38
2018-01-18T01:29:01.534Z,89.28
2018-01-18T01:29:42.210Z,89.19
2018-01-18T01:30:23.604Z,89.38
2018-01-18T01:31:04.432Z,89.38
2018-01-18T01:31:44.882Z,89
2018-01-18T01:32:25.568Z,89.67
2018-01-18T01:33:06.214Z,89.19
2018-01-18T01:33:47.193Z,89.38
2018-01-18T01:34:28.242Z,89.38
2018-01-18T01:35:08.996Z,89.67
2018-01-18T01:35:49.817Z,89.47
2018-01-18T01:36:31.294Z,89.19
2018-01-18T01:37:12.090Z,89.47
2018-01-18T01:37:55.303Z,89.76
2018-01-18T01:38:38.572Z,89.76
2018-01-18T01:39:38.590Z,89.67
2018-01-18T01:40:18.874Z,90.23
2018-01-18T01:40:59.404Z,90.05
2018-01-18T01:41:42.295Z,90.33
2018-01-18T01:42:22.873Z,90.14
2018-01-18T01:43:03.425Z,90.14
2018-01-18T01:43:43.942Z,90.52
2018-01-18T01:44:24.477Z,90.23
2018-01-18T01:45:05.747Z,91.28
2018-01-18T01:45:47.439Z,92.32
2018-01-18T01:46:27.954Z,91.66
2018-01-18T01:47:08.494Z,91.47
2018-01-18T01:47:49.021Z,91.85
2018-01-18T01:48:29.548Z,91.94
2018-01-18T01:49:12.811Z,91.94
2018-01-18T01:49:53.414Z,92.23
2018-01-18T01:50:33.960Z,91.66
2018-01-18T01:51:14.447Z,91.38
2018-01-18T01:51:56.892Z,91.38
2018-01-18T01:52:38.152Z,91.38
2018-01-18T01:53:18.715Z,90.8
2018-01-18T01:53:59.217Z,90.42
2018-01-18T01:54:39.754Z,91.09
2018-01-18T01:56:37.669Z,90.99
2018-01-18T01:57:18.209Z,91.94
2018-01-18T01:57:58.899Z,91.28
2018-01-18T01:58:39.428Z,91.85
2018-01-18T02:00:59.600Z,91.75
2018-01-18T02:01:42.806Z,91.56
2018-01-18T02:02:23.348Z,91.09
2018-01-18T02:03:03.889Z,91.19
2018-01-18T02:03:44.394Z,91.85
2018-01-18T02:04:28.964Z,91.09
2018-01-18T02:06:17.275Z,90.99
2018-01-18T02:06:57.659Z,91.09
2018-01-18T02:07:38.452Z,90.99
2018-01-18T02:08:19.002Z,90.14
2018-01-18T02:08:59.571Z,90.42
2018-01-18T02:09:40.058Z,90.14
2018-01-18T02:10:20.625Z,90.05
2018-01-18T02:11:01.182Z,90.33
2018-01-18T02:11:41.721Z,90.05
2018-01-18T02:12:22.235Z,90.99
2018-01-18T02:13:02.772Z,90.9
2018-01-18T02:13:43.341Z,90.61
2018-01-18T02:14:23.837Z,89.86
2018-01-18T02:15:04.443Z,89.95
2018-01-18T02:15:44.866Z,90.52
2018-01-18T02:16:25.441Z,90.52
2018-01-18T02:17:05.952Z,90.14
2018-01-18T02:17:46.497Z,89.57
2018-01-18T02:18:27.028Z,89.57
2018-01-18T02:19:07.558Z,89
2018-01-18T02:19:48.048Z,88.81
2018-01-18T02:20:28.609Z,89.19
2018-01-18T02:21:09.117Z,89.95
2018-01-18T02:21:49.688Z,89.57
2018-01-18T02:22:30.238Z,89.28
2018-01-18T02:23:10.840Z,89.19
2018-01-18T02:23:51.365Z,89.09
2018-01-18T02:24:31.994Z,88.53
2018-01-18T02:25:12.458Z,88.71
2018-01-18T02:25:52.998Z,88.85
2018-01-18T02:26:33.524Z,88.85
2018-01-18T02:27:14.080Z,88.85
2018-01-18T02:27:54.836Z,88.53
2018-01-18T02:28:35.311Z,88.95
2018-01-18T02:29:15.865Z,88.76
2018-01-18T02:29:56.460Z,88.43
2018-01-18T02:30:36.929Z,88.34
2018-01-18T02:31:17.448Z,89.14
2018-01-18T02:31:58.035Z,88.53
2018-01-18T02:32:38.548Z,88.28
2018-01-18T02:33:19.114Z,88.09
2018-01-18T02:33:59.653Z,88.57
2018-01-18T02:34:40.169Z,88.57
2018-01-18T02:35:20.714Z,88.28
2018-01-18T02:36:01.230Z,87.81
2018-01-18T02:36:41.809Z,87.81
2018-01-18T02:37:22.297Z,88
2018-01-18T02:38:02.816Z,87.81
2018-01-18T02:38:43.330Z,87.24
2018-01-18T02:39:23.850Z,87.05
2018-01-18T02:40:04.378Z,87.71
2018-01-18T02:40:45.020Z,87.05
2018-01-18T02:41:25.531Z,87.52
2018-01-18T02:42:06.006Z,87.52
2018-01-18T02:42:46.528Z,87.48
2018-01-18T02:43:27.104Z,88
2018-01-18T02:44:07.602Z,87.52
2018-01-18T02:44:48.119Z,87.95
2018-01-18T02:45:28.659Z,87.48
2018-01-18T02:46:09.189Z,87.1
2018-01-18T02:46:49.757Z,87.86
2018-01-18T02:47:30.284Z,87.86
2018-01-18T02:48:10.854Z,87.86
2018-01-18T02:48:51.360Z,88.15
2018-01-18T02:49:31.925Z,87.19
2018-01-18T02:50:12.476Z,87.76
2018-01-18T02:50:52.967Z,87.76
2018-01-18T02:51:33.496Z,87.86
2018-01-18T02:52:14.014Z,86.95
2018-01-18T02:52:54.547Z,86.91
2018-01-18T02:53:35.099Z,86.63
2018-01-18T02:54:15.602Z,87.01
2018-01-18T02:54:56.158Z,87.01
2018-01-18T02:55:36.643Z,87.01
2018-01-18T02:56:17.171Z,87.19
2018-01-18T02:56:57.752Z,87.19
2018-01-18T02:57:38.244Z,88.05
2018-01-18T02:58:18.757Z,87.76
2018-01-18T02:58:59.322Z,87.48
2018-01-18T02:59:39.942Z,87.01
2018-01-18T03:00:20.438Z,87.86
2018-01-18T03:01:00.971Z,87.95
2018-01-18T03:01:41.524Z,87.76
2018-01-18T03:02:22.016Z,87.76
2018-01-18T03:03:02.555Z,88.09
2018-01-18T03:03:43.098Z,87.76
2018-01-18T03:04:23.587Z,87.86
2018-01-18T03:05:04.138Z,87.86
2018-01-18T03:05:44.650Z,88
2018-01-18T03:06:25.186Z,87.81
2018-01-18T03:07:05.681Z,88.09
2018-01-18T03:07:46.193Z,88
2018-01-18T03:08:26.709Z,87.86
2018-01-18T03:09:07.243Z,88.09
2018-01-18T03:09:47.730Z,88.34
2018-01-18T03:10:28.255Z,88.47
2018-01-18T03:11:08.786Z,88.47
2018-01-18T03:11:49.391Z,88.43
2018-01-18T03:12:29.903Z,88.53
2018-01-18T03:13:10.421Z,88.24
2018-01-18T03:13:50.976Z,88.24
2018-01-18T03:14:31.529Z,88.81
2018-01-18T03:15:12.068Z,88.34
2018-01-18T03:15:52.558Z,88.24
2018-01-18T03:16:33.161Z,88.24
2018-01-18T03:17:13.616Z,88.05
2018-01-18T03:17:54.184Z,88.34
2018-01-18T03:18:34.732Z,88.9
2018-01-18T03:19:15.227Z,89.09
2018-01-18T03:19:55.750Z,89.38
2018-01-18T03:20:36.290Z,89.19
2018-01-18T03:21:16.817Z,89.28
2018-01-18T03:21:57.406Z,88.71
2018-01-18T03:22:37.958Z,89.09
2018-01-18T03:23:18.561Z,88.9
2018-01-18T03:23:59.019Z,88.53
2018-01-18T03:24:39.608Z,88.9
2018-01-18T03:25:20.091Z,89.09
2018-01-18T03:26:00.665Z,89.19
2018-01-18T03:26:41.200Z,89.09
2018-01-18T03:27:21.697Z,89.95
2018-01-18T03:28:02.229Z,89.76
2018-01-18T03:28:42.770Z,89.67
2018-01-18T03:29:23.319Z,89.86
2018-01-18T03:30:03.835Z,90.05
2018-01-18T03:30:44.393Z,89.76
2018-01-18T03:31:24.948Z,90.61
2018-01-18T03:32:05.454Z,90.61
2018-01-18T03:32:46.007Z,90.52
2018-01-18T03:33:26.556Z,90.52
2018-01-18T03:34:07.067Z,91.09
2018-01-18T03:34:47.862Z,91.09
2018-01-18T03:35:28.404Z,91.38
2018-01-18T03:36:08.903Z,90.9
2018-01-18T03:36:49.415Z,91.19
2018-01-18T03:37:29.970Z,91.66
2018-01-18T03:38:10.522Z,91.75
2018-01-18T03:38:51.093Z,91.38
2018-01-18T03:39:31.561Z,91.66
2018-01-18T03:40:12.085Z,91.28
2018-01-18T03:40:52.591Z,91.94
2018-01-18T03:41:33.118Z,92.04
2018-01-18T03:42:13.662Z,92.23
2018-01-18T03:42:54.141Z,92.99
2018-01-18T03:43:34.667Z,92.32
2018-01-18T03:44:15.203Z,92.8
2018-01-18T03:44:55.757Z,92.61
2018-01-18T03:45:36.265Z,92.71
2018-01-18T03:46:16.820Z,92.42
2018-01-18T03:46:57.343Z,92.51
2018-01-18T03:47:38.041Z,92.99
2018-01-18T03:48:18.631Z,92.8
2018-01-18T03:48:59.177Z,93.46
2018-01-18T03:49:39.725Z,92.61
2018-01-18T03:50:20.219Z,93.65
2018-01-18T03:51:00.738Z,93.27
2018-01-18T03:51:41.291Z,93.56
2018-01-18T03:52:21.821Z,93.46
2018-01-18T03:53:02.365Z,93.65
2018-01-18T03:53:42.861Z,93.75
2018-01-18T03:54:23.424Z,94.42
2018-01-18T03:55:03.934Z,94.03
2018-01-18T03:55:44.482Z,94.79
2018-01-18T03:56:25.305Z,95.08
2018-01-18T03:57:05.920Z,95.17
2018-01-18T03:57:46.433Z,95.84
2018-01-18T03:58:26.897Z,95.75
2018-01-18T03:59:07.472Z,95.84
2018-01-18T03:59:47.963Z,95.55
2018-01-18T04:00:28.472Z,95.46
2018-01-18T04:01:08.992Z,96.22
2018-01-18T04:01:49.510Z,95.94
2018-01-18T04:02:30.052Z,96.03
2018-01-18T04:03:10.597Z,96.5
2018-01-18T04:03:51.126Z,96.36
2018-01-18T04:04:31.648Z,96.93
2018-01-18T04:05:12.216Z,97.07
2018-01-18T04:05:52.988Z,97.27
2018-01-18T04:06:34.207Z,97.27
2018-01-18T04:07:14.734Z,97.45
2018-01-18T04:07:55.313Z,97.45
2018-01-18T04:08:35.800Z,98.21
2018-01-18T04:09:16.365Z,97.64
2018-01-18T04:09:56.855Z,97.55
2018-01-18T04:10:37.408Z,98.02
2018-01-18T04:11:17.948Z,97.55
2018-01-18T04:11:58.423Z,97.92
2018-01-18T04:12:38.971Z,98.31
2018-01-18T04:13:20.025Z,98.21
2018-01-18T04:14:00.762Z,98.31
2018-01-18T04:14:41.254Z,98.5
2018-01-18T04:15:21.922Z,98.97
2018-01-18T04:16:02.444Z,98.79
2018-01-18T04:16:43.012Z,97.83
2018-01-18T04:17:23.538Z,98.02
2018-01-18T04:18:04.030Z,97.92
2018-01-18T04:18:44.595Z,97.27
2018-01-18T04:19:25.097Z,97.92
2018-01-18T04:20:05.598Z,97.83
2018-01-18T04:20:46.238Z,97.83
2018-01-18T04:21:26.782Z,97.83
2018-01-18T04:22:07.845Z,98.02
2018-01-18T04:22:48.338Z,98.02
2018-01-18T04:23:28.890Z,98.4
2018-01-18T04:24:09.455Z,98.31
2018-01-18T04:24:50.003Z,98.31
2018-01-18T04:25:30.516Z,99.16
2018-01-18T04:26:11.072Z,98.69
2018-01-18T04:26:51.610Z,98.79
2018-01-18T04:27:32.223Z,98.79
2018-01-18T04:28:12.909Z,98.88
2018-01-18T04:28:53.581Z,98.4
2018-01-18T04:29:34.114Z,98.5
2018-01-18T04:30:14.805Z,98.79
2018-01-18T04:32:03.078Z,98.79
2018-01-18T04:32:43.602Z,98.97
2018-01-18T04:33:24.114Z,98.79
2018-01-18T04:34:04.660Z,98.73
2018-01-18T04:34:45.184Z,98.73
2018-01-18T04:35:27.908Z,99.3
2018-01-18T04:36:08.588Z,99.4
2018-01-18T04:36:49.102Z,99.4
2018-01-18T04:37:29.683Z,99.68
2018-01-18T04:38:10.265Z,99.44
2018-01-18T04:38:52.818Z,99.99
2018-01-18T04:39:33.636Z,99.44
2018-01-18T04:40:14.156Z,99.64
2018-01-18T04:40:54.667Z,99.64
2018-01-18T04:41:35.164Z,99.99
2018-01-18T04:42:17.395Z,99.97
2018-01-18T04:42:58.371Z,99.83
2018-01-18T04:43:38.907Z,99.99
2018-01-18T04:44:19.412Z,99.58
2018-01-18T04:45:00.003Z,99.49
2018-01-18T04:45:40.554Z,99.99
2018-01-18T04:46:23.825Z,99.99
2018-01-18T04:47:04.343Z,99.99
2018-01-18T04:47:44.865Z,99.99
2018-01-18T04:48:26.762Z,99.99
2018-01-18T04:49:08.887Z,99.99
2018-01-18T04:49:49.424Z,99.99
2018-01-18T04:50:29.967Z,99.99
2018-01-18T04:51:10.512Z,99.99
2018-01-18T04:51:53.806Z,99.99
2018-01-18T04:52:34.301Z,99.99
2018-01-18T04:53:14.836Z,99.99
2018-01-18T04:53:55.405Z,99.99
2018-01-18T04:54:36.565Z,99.99
2018-01-18T04:55:17.178Z,99.99
2018-01-18T04:55:57.673Z,99.99
2018-01-18T04:56:38.220Z,99.99
2018-01-18T04:57:18.702Z,99.99
2018-01-18T04:57:59.229Z,99.99
2018-01-18T04:58:39.746Z,99.99
2018-01-18T04:59:20.329Z,99.99
2018-01-18T05:00:00.853Z,99.99
2018-01-18T05:00:41.389Z,99.99
2018-01-18T05:01:21.951Z,99.99
2018-01-18T05:02:02.436Z,99.99
2018-01-18T05:02:43.021Z,99.99
2018-01-18T05:03:23.499Z,99.99
2018-01-18T05:04:04.061Z,99.99
2018-01-18T05:04:44.608Z,99.99
2018-01-18T05:05:25.088Z,99.99
2018-01-18T05:06:05.611Z,99.99
2018-01-18T05:06:46.085Z,99.99
2018-01-18T05:07:26.622Z,99.99
2018-01-18T05:08:07.147Z,99.99
2018-01-18T05:08:47.678Z,99.99
2018-01-18T05:09:28.239Z,99.99
2018-01-18T05:10:08.716Z,99.99
2018-01-18T05:10:49.241Z,99.99
2018-01-18T05:11:29.769Z,99.99
2018-01-18T05:12:10.277Z,99.99
2018-01-18T05:12:50.800Z,99.99
2018-01-18T05:13:31.304Z,99.99
2018-01-18T05:14:11.864Z,99.99
2018-01-18T05:14:52.415Z,99.99
2018-01-18T05:15:32.934Z,99.99
2018-01-18T05:16:13.497Z,99.99
2018-01-18T05:16:53.996Z,99.99
2018-01-18T05:17:34.553Z,99.99
2018-01-18T05:18:15.090Z,99.99
2018-01-18T05:18:55.600Z,99.99
2018-01-18T05:19:36.119Z,99.99
2018-01-18T05:20:16.645Z,99.99
2018-01-18T05:20:57.174Z,99.99
2018-01-18T05:21:37.720Z,99.99
2018-01-18T05:22:18.244Z,99.99
2018-01-18T05:22:58.746Z,99.99
2018-01-18T05:23:39.312Z,99.99
2018-01-18T05:24:19.857Z,99.99
2018-01-18T05:25:00.407Z,99.99
2018-01-18T05:25:40.943Z,99.99
2018-01-18T05:26:21.479Z,99.99
2018-01-18T05:27:01.996Z,99.99
2018-01-18T05:27:42.564Z,99.99
2018-01-18T05:28:23.090Z,99.99
2018-01-18T05:29:03.625Z,99.99
2018-01-18T05:29:44.127Z,99.99
2018-01-18T05:30:24.680Z,99.99
2018-01-18T05:31:05.242Z,99.99
2018-01-18T05:31:45.727Z,99.99
2018-01-18T05:32:26.247Z,99.99
2018-01-18T05:33:06.739Z,99.99
2018-01-18T05:33:47.280Z,99.99
2018-01-18T05:34:27.829Z,99.99
2018-01-18T05:35:08.423Z,99.99
2018-01-18T05:35:48.927Z,99.99
2018-01-18T05:36:29.463Z,99.99
2018-01-18T05:37:10.008Z,99.99
2018-01-18T05:37:50.500Z,99.99
2018-01-18T05:38:31.033Z,99.99
2018-01-18T05:39:11.551Z,99.99
2018-01-18T05:39:52.081Z,99.99
2018-01-18T05:40:32.624Z,99.99
2018-01-18T05:41:13.130Z,99.99
2018-01-18T05:41:53.672Z,99.99
2018-01-18T05:42:34.226Z,99.99
2018-01-18T05:43:14.766Z,99.99
2018-01-18T05:43:55.283Z,99.99
2018-01-18T05:44:35.789Z,99.99
2018-01-18T05:45:16.351Z,99.99
2018-01-18T05:45:56.906Z,99.99
2018-01-18T05:46:37.571Z,99.99
2018-01-18T05:47:26.759Z,99.99
2018-01-18T05:48:06.758Z,99.99
2018-01-18T05:48:47.381Z,99.99
2018-01-18T05:49:27.947Z,99.99
2018-01-18T05:50:08.477Z,99.99
2018-01-18T05:50:49.008Z,99.99
2018-01-18T05:51:30.176Z,99.99
2018-01-18T05:52:10.744Z,99.99
2018-01-18T05:52:51.337Z,99.99
2018-01-18T05:53:31.834Z,99.99
2018-01-18T05:54:12.438Z,99.99
2018-01-18T05:54:53.228Z,99.99
2018-01-18T05:55:33.759Z,99.99
2018-01-18T05:56:14.364Z,99.99
2018-01-18T05:56:54.867Z,99.99
2018-01-18T05:57:35.385Z,99.99
2018-01-18T05:58:15.937Z,99.99
2018-01-18T05:58:56.711Z,99.99
2018-01-18T05:59:37.200Z,99.99
2018-01-18T06:00:18.011Z,99.99
2018-01-18T06:00:59.144Z,99.99
2018-01-18T06:01:39.495Z,99.99
2018-01-18T06:02:20.040Z,99.99
2018-01-18T06:03:00.511Z,99.99
2018-01-18T06:03:41.095Z,99.99
2018-01-18T06:04:21.616Z,99.99
2018-01-18T06:05:02.118Z,99.99
2018-01-18T06:05:42.763Z,99.99
2018-01-18T06:06:23.222Z,99.99
2018-01-18T06:07:03.712Z,99.99
2018-01-18T06:07:44.231Z,99.99
2018-01-18T06:08:24.820Z,99.99
2018-01-18T06:09:05.470Z,99.99
2018-01-18T06:09:45.865Z,99.99
2018-01-18T06:10:26.417Z,99.99
2018-01-18T06:11:07.074Z,99.99
2018-01-18T06:11:48.414Z,99.99
2018-01-18T06:12:28.949Z,99.99
2018-01-18T06:13:09.504Z,99.99
2018-01-18T06:13:50.056Z,99.99
2018-01-18T06:14:30.991Z,99.99
2018-01-18T06:15:11.295Z,99.99
2018-01-18T06:15:51.790Z,99.99
2018-01-18T06:16:32.365Z,99.99
2018-01-18T06:17:12.922Z,99.99
2018-01-18T06:17:53.410Z,99.99
2018-01-18T06:18:33.913Z,99.99
2018-01-18T06:19:14.509Z,99.99
2018-01-18T06:19:55.126Z,99.99
2018-01-18T06:20:35.671Z,99.99
2018-01-18T06:21:16.204Z,99.99
2018-01-18T06:21:56.763Z,99.99
2018-01-18T06:22:37.261Z,99.99
2018-01-18T06:23:17.802Z,99.99
2018-01-18T06:23:58.347Z,99.99
2018-01-18T06:24:38.895Z,99.99
2018-01-18T06:25:19.427Z,99.99
2018-01-18T06:26:00.051Z,99.99
2018-01-18T06:26:40.580Z,99.99
2018-01-18T06:27:21.083Z,99.99
2018-01-18T06:28:01.643Z,99.99
2018-01-18T06:28:42.161Z,99.99
2018-01-18T06:29:22.687Z,99.99
2018-01-18T06:30:03.167Z,99.99
2018-01-18T06:30:43.691Z,99.99
2018-01-18T06:31:24.262Z,99.99
2018-01-18T06:32:04.783Z,99.99
2018-01-18T06:32:45.473Z,99.99
2018-01-18T06:33:25.906Z,99.99
2018-01-18T06:34:06.424Z,99.99
2018-01-18T06:34:46.954Z,99.99
2018-01-18T06:35:27.463Z,99.99
2018-01-18T06:36:08.117Z,99.99
2018-01-18T06:36:48.648Z,99.99
2018-01-18T06:37:29.249Z,99.99
2018-01-18T06:38:09.932Z,99.99
2018-01-18T06:38:50.746Z,99.99
2018-01-18T06:39:31.263Z,99.99
2018-01-18T06:40:11.819Z,99.99
2018-01-18T06:40:52.301Z,99.99
2018-01-18T06:41:32.832Z,99.99
2018-01-18T06:42:13.391Z,99.99
2018-01-18T06:42:53.911Z,99.99
2018-01-18T06:43:34.476Z,99.99
2018-01-18T06:44:15.060Z,99.99
2018-01-18T06:44:55.586Z,99.99
2018-01-18T06:45:36.143Z,99.99
2018-01-18T06:46:16.663Z,99.99
2018-01-18T06:46:57.166Z,99.99
2018-01-18T06:47:37.720Z,99.99
2018-01-18T06:48:18.306Z,99.99
2018-01-18T06:48:58.995Z,99.99
2018-01-18T06:49:39.547Z,99.99
2018-01-18T06:50:20.067Z,99.99
2018-01-18T06:51:00.636Z,99.99
2018-01-18T06:51:41.146Z,99.99
2018-01-18T06:52:21.671Z,99.99
2018-01-18T06:53:02.205Z,99.99
2018-01-18T06:53:42.752Z,99.99
2018-01-18T06:54:23.315Z,99.99
2018-01-18T06:55:03.836Z,99.99
2018-01-18T06:55:44.388Z,99.99
2018-01-18T06:56:25.679Z,99.99
2018-01-18T06:57:05.724Z,99.99
2018-01-18T06:57:46.263Z,99.99
2018-01-18T06:58:26.832Z,99.99
2018-01-18T06:59:07.359Z,99.99
2018-01-18T06:59:47.962Z,99.99
2018-01-18T07:00:28.549Z,99.99
2018-01-18T07:01:09.013Z,99.99
2018-01-18T07:01:49.575Z,99.99
2018-01-18T07:02:30.086Z,99.99
2018-01-18T07:03:10.685Z,99.99
2018-01-18T07:03:51.289Z,99.99
2018-01-18T07:04:31.833Z,99.99
2018-01-18T07:05:12.371Z,99.99
2018-01-18T07:05:52.973Z,99.99
2018-01-18T07:06:33.488Z,99.99
2018-01-18T07:07:14.049Z,99.99
2018-01-18T07:07:54.595Z,99.99
2018-01-18T07:08:35.134Z,99.99
2018-01-18T07:09:15.704Z,99.99
2018-01-18T07:09:56.333Z,99.99
2018-01-18T07:10:36.882Z,99.99
2018-01-18T07:11:17.586Z,99.99
2018-01-18T07:11:58.125Z,99.99
2018-01-18T07:12:38.660Z,99.99
2018-01-18T07:13:19.278Z,99.99
2018-01-18T07:13:59.942Z,99.99
2018-01-18T07:14:40.309Z,99.99
2018-01-18T07:15:20.892Z,99.99
2018-01-18T07:16:01.349Z,99.99
2018-01-18T07:16:41.899Z,99.99
2018-01-18T07:17:22.533Z,99.99
2018-01-18T07:18:03.057Z,99.99
2018-01-18T07:18:43.680Z,99.99
2018-01-18T07:19:24.184Z,99.99
2018-01-18T07:20:04.711Z,99.99
2018-01-18T07:20:45.291Z,99.99
2018-01-18T07:21:25.810Z,99.99
2018-01-18T07:22:06.323Z,99.99
2018-01-18T07:22:46.810Z,99.99
2018-01-18T07:23:27.438Z,99.99
2018-01-18T07:24:07.902Z,99.99
2018-01-18T07:24:48.396Z,99.99
2018-01-18T07:25:29.016Z,99.99
2018-01-18T07:26:09.484Z,99.99
2018-01-18T07:26:50.038Z,99.99
2018-01-18T07:27:30.641Z,99.99
2018-01-18T07:28:11.137Z,99.99
2018-01-18T07:28:51.703Z,99.99
2018-01-18T07:29:32.212Z,99.99
2018-01-18T07:30:12.899Z,99.99
2018-01-18T07:30:53.443Z,99.99
2018-01-18T07:31:33.923Z,99.99
2018-01-18T07:32:14.420Z,99.99
2018-01-18T07:32:54.972Z,99.99
2018-01-18T07:33:35.461Z,99.99
2018-01-18T07:34:16.106Z,99.99
2018-01-18T07:34:56.684Z,99.99
2018-01-18T07:35:37.233Z,99.99
2018-01-18T07:36:17.790Z,99.99
2018-01-18T07:36:58.301Z,99.99
2018-01-18T07:37:38.890Z,99.99
2018-01-18T07:38:19.654Z,99.99
2018-01-18T07:39:01.007Z,99.99
2018-01-18T07:39:41.699Z,99.99
2018-01-18T07:40:22.210Z,99.99
2018-01-18T07:41:02.882Z,99.99
2018-01-18T07:41:43.415Z,99.99
2018-01-18T07:42:23.962Z,99.99
2018-01-18T07:43:04.457Z,99.99
2018-01-18T07:43:44.995Z,99.99
2018-01-18T07:44:25.490Z,99.99
2018-01-18T07:45:06.073Z,99.99
2018-01-18T07:45:46.676Z,99.99
2018-01-18T07:46:27.292Z,99.99
2018-01-18T07:47:07.889Z,99.99
2018-01-18T07:47:48.503Z,99.99
2018-01-18T07:48:29.028Z,99.99
2018-01-18T07:49:09.585Z,99.99
2018-01-18T07:49:50.163Z,99.99
2018-01-18T07:50:30.633Z,99.99
2018-01-18T07:51:11.222Z,99.99
2018-01-18T07:51:51.695Z,99.99
2018-01-18T07:52:32.246Z,99.99
2018-01-18T07:53:12.849Z,99.99
2018-01-18T07:53:53.397Z,99.99
2018-01-18T07:54:33.976Z,99.99
2018-01-18T07:55:14.484Z,99.99
2018-01-18T07:55:55.026Z,99.99
2018-01-18T07:56:35.506Z,99.99
2018-01-18T07:57:16.232Z,99.99
2018-01-18T07:57:56.874Z,99.99
2018-01-18T07:58:37.348Z,99.99
2018-01-18T07:59:17.858Z,99.99
2018-01-18T07:59:58.444Z,99.99
2018-01-18T08:00:39.073Z,99.99
2018-01-18T08:01:19.699Z,99.99
2018-01-18T08:02:00.282Z,99.99
2018-01-18T08:02:40.818Z,99.99
2018-01-18T08:03:21.361Z,99.99
2018-01-18T08:04:01.879Z,99.99
2018-01-18T08:04:42.490Z,99.99
2018-01-18T08:05:22.957Z,99.99
2018-01-18T08:06:03.512Z,99.99
2018-01-18T08:06:43.992Z,99.99
2018-01-18T08:07:24.670Z,99.99
2018-01-18T08:08:05.245Z,99.99
2018-01-18T08:08:45.758Z,99.99
2018-01-18T08:09:26.246Z,99.99
2018-01-18T08:10:06.785Z,99.99
2018-01-18T08:10:47.448Z,99.99
2018-01-18T08:11:27.966Z,99.99
2018-01-18T08:12:08.540Z,99.99
2018-01-18T08:12:49.140Z,99.99
2018-01-18T08:13:29.644Z,99.99
2018-01-18T08:14:10.221Z,99.99
2018-01-18T08:14:50.776Z,99.99
2018-01-18T08:15:31.358Z,99.99
2018-01-18T08:16:11.842Z,99.99
2018-01-18T08:16:52.384Z,99.99
2018-01-18T08:17:32.878Z,99.99
2018-01-18T08:18:13.456Z,99.99
2018-01-18T08:18:53.954Z,99.99
2018-01-18T08:19:34.511Z,99.99
2018-01-18T08:20:15.073Z,99.99
2018-01-18T08:20:55.668Z,99.99
2018-01-18T08:21:36.187Z,99.99
2018-01-18T08:22:16.899Z,99.99
2018-01-18T08:22:57.442Z,99.99
2018-01-18T08:23:38.030Z,99.99
2018-01-18T08:24:18.605Z,99.99
2018-01-18T08:24:59.152Z,99.99
2018-01-18T08:25:39.634Z,99.99
2018-01-18T08:26:20.166Z,99.99
2018-01-18T08:27:00.707Z,99.99
2018-01-18T08:27:41.204Z,99.99
2018-01-18T08:28:21.849Z,99.99
2018-01-18T08:29:02.292Z,99.99
2018-01-18T08:29:42.834Z,99.99
2018-01-18T08:30:23.391Z,99.99
2018-01-18T08:31:03.977Z,99.83
2018-01-18T08:33:21.908Z,99.5
2018-01-18T08:34:10.986Z,99.97
2018-01-18T08:35:00.827Z,99.69
2018-01-18T08:35:49.338Z,99.97
2018-01-18T08:36:38.450Z,99.97
2018-01-18T08:37:30.194Z,99.59
2018-01-18T08:38:24.155Z,99.59
2018-01-18T08:39:14.806Z,99.88
2018-01-18T08:40:04.852Z,99.88
2018-01-18T08:45:41.929Z,98.83
2018-01-18T08:46:31.481Z,98.64
2018-01-18T08:47:21.749Z,98.93
2018-01-18T08:48:11.120Z,98.36
2018-01-18T08:49:00.135Z,98.17
2018-01-18T08:49:49.499Z,98.26
2018-01-18T08:50:39.072Z,97.88
2018-01-18T08:51:27.252Z,97.78
2018-01-18T08:52:15.971Z,98.07
2018-01-18T08:53:04.882Z,97.74
2018-01-18T08:53:53.682Z,97.88
2018-01-18T08:54:42.643Z,97.5
2018-01-18T08:55:31.247Z,96.93
2018-01-18T08:56:20.208Z,96.84
2018-01-18T08:57:09.354Z,97.6
2018-01-18T08:57:58.407Z,96.74
2018-01-18T08:58:49.739Z,96.5
2018-01-18T08:59:39.254Z,97.17
2018-01-18T09:00:29.180Z,96.22
2018-01-18T09:01:18.214Z,97.17
2018-01-18T09:02:07.381Z,96.03
2018-01-18T09:02:56.011Z,96.12
2018-01-18T09:03:45.110Z,95.75
2018-01-18T09:04:34.222Z,95.75
2018-01-18T09:05:22.499Z,95.65
2018-01-18T09:06:12.221Z,94.89
2018-01-18T09:07:02.201Z,94.51
2018-01-18T09:07:51.408Z,94.79